createdAt,value
2018-04-27T00:00:54.664Z,1011.43
2018-04-27T00:01:54.691Z,1011.42
2018-04-27T00:02:54.703Z,1011.39
2018-04-27T00:03:54.717Z,1011.37
2018-04-27T00:04:54.729Z,1011.36
2018-04-27T00:05:54.747Z,1011.37
2018-04-27T00:06:54.758Z,1011.30
2018-04-27T00:07:54.783Z,1011.28
2018-04-27T00:08:54.797Z,1011.27
2018-04-27T00:09:54.809Z,1011.32
2018-04-27T00:10:54.824Z,1011.32
2018-04-27T00:11:54.849Z,1011.38
2018-04-27T00:12:54.863Z,1011.35
2018-04-27T00:13:54.878Z,1011.32
2018-04-27T00:14:54.891Z,1011.29
2018-04-27T00:15:54.905Z,1011.29
2018-04-27T00:16:54.917Z,1011.30
2018-04-27T00:17:54.943Z,1011.31
2018-04-27T00:18:54.957Z,1011.31
2018-04-27T00:19:54.970Z,1011.35
2018-04-27T00:20:54.985Z,1011.36
2018-04-27T00:21:54.997Z,1011.39
2018-04-27T00:22:55.010Z,1011.41
2018-04-27T00:23:55.026Z,1011.38
2018-04-27T00:24:55.050Z,1011.35
2018-04-27T00:25:55.063Z,1011.36
2018-04-27T00:26:55.076Z,1011.38
2018-04-27T00:27:55.090Z,1011.39
2018-04-27T00:28:55.110Z,1011.40
2018-04-27T00:29:55.129Z,1011.34
2018-04-27T00:30:55.143Z,1011.32
2018-04-27T00:31:55.155Z,1011.33
2018-04-27T00:32:55.171Z,1011.30
2018-04-27T00:33:55.184Z,1011.26
2018-04-27T00:34:55.197Z,1011.26
2018-04-27T00:35:55.223Z,1011.22
2018-04-27T00:36:55.236Z,1011.22
2018-04-27T00:37:55.251Z,1011.28
2018-04-27T00:38:55.263Z,1011.37
2018-04-27T00:39:55.289Z,1011.40
2018-04-27T00:40:55.302Z,1011.42
2018-04-27T00:41:55.329Z,1011.47
2018-04-27T00:42:55.333Z,1011.41
2018-04-27T00:43:55.344Z,1011.41
2018-04-27T00:44:55.359Z,1011.37
2018-04-27T00:45:55.371Z,1011.40
2018-04-27T00:46:55.396Z,1011.36
2018-04-27T00:47:55.413Z,1011.31
2018-04-27T00:48:55.424Z,1011.34
2018-04-27T00:49:55.437Z,1011.36
2018-04-27T00:50:55.450Z,1011.35
2018-04-27T00:51:55.464Z,1011.31
2018-04-27T00:52:55.494Z,1011.31
2018-04-27T00:53:55.503Z,1011.31
2018-04-27T00:54:55.517Z,1011.33
2018-04-27T00:55:55.530Z,1011.31
2018-04-27T00:56:55.544Z,1011.34
2018-04-27T00:57:55.558Z,1011.31
2018-04-27T00:58:55.583Z,1011.28
2018-04-27T00:59:55.597Z,1011.26
2018-04-27T01:00:55.610Z,1011.27
2018-04-27T01:01:55.624Z,1011.23
2018-04-27T01:02:55.637Z,1011.25
2018-04-27T01:03:55.654Z,1011.22
2018-04-27T01:04:55.665Z,1011.26
2018-04-27T01:05:55.692Z,1011.23
2018-04-27T01:06:55.705Z,1011.22
2018-04-27T01:07:55.717Z,1011.23
2018-04-27T01:08:55.732Z,1011.24
2018-04-27T01:09:55.745Z,1011.26
2018-04-27T01:10:55.759Z,1011.24
2018-04-27T01:11:55.772Z,1011.21
2018-04-27T01:12:55.800Z,1011.20
2018-04-27T01:13:55.813Z,1011.23
2018-04-27T01:14:55.825Z,1011.19
2018-04-27T01:15:55.842Z,1011.21
2018-04-27T01:16:55.853Z,1011.20
2018-04-27T01:17:55.866Z,1011.20
2018-04-27T01:18:55.880Z,1011.15
2018-04-27T01:19:55.918Z,1011.12
2018-04-27T01:20:55.919Z,1011.16
2018-04-27T01:21:55.934Z,1011.13
2018-04-27T01:22:55.948Z,1011.14
2018-04-27T01:23:55.959Z,1011.15
2018-04-27T01:24:55.973Z,1011.16
2018-04-27T01:25:55.986Z,1011.15
2018-04-27T01:26:56.001Z,1011.16
2018-04-27T01:27:56.025Z,1011.16
2018-04-27T01:28:56.051Z,1011.13
2018-04-27T01:29:56.052Z,1011.11
2018-04-27T01:30:56.065Z,1011.09
2018-04-27T01:31:56.080Z,1011.15
2018-04-27T01:32:56.092Z,1011.16
2018-04-27T01:33:56.111Z,1011.18
2018-04-27T01:34:56.119Z,1011.22
2018-04-27T01:35:56.144Z,1011.21
2018-04-27T01:36:56.159Z,1011.24
2018-04-27T01:37:56.172Z,1011.22
2018-04-27T01:38:56.186Z,1011.24
2018-04-27T01:39:56.198Z,1011.25
2018-04-27T01:40:56.215Z,1011.23
2018-04-27T01:41:56.238Z,1011.22
2018-04-27T01:42:56.240Z,1011.23
2018-04-27T01:43:56.254Z,1011.20
2018-04-27T01:44:56.279Z,1011.23
2018-04-27T01:45:56.302Z,1011.31
2018-04-27T01:46:56.304Z,1011.31
2018-04-27T01:47:56.319Z,1011.30
2018-04-27T01:48:56.330Z,1011.29
2018-04-27T01:49:56.345Z,1011.29
2018-04-27T01:50:56.361Z,1011.25
2018-04-27T01:51:56.373Z,1011.31
2018-04-27T01:52:56.399Z,1011.27
2018-04-27T01:53:56.411Z,1011.27
2018-04-27T01:54:56.426Z,1011.28
2018-04-27T01:55:56.439Z,1011.27
2018-04-27T01:56:56.458Z,1011.30
2018-04-27T01:57:56.470Z,1011.28
2018-04-27T01:58:56.479Z,1011.29
2018-04-27T01:59:56.492Z,1011.28
2018-04-27T02:00:56.510Z,1011.31
2018-04-27T02:01:56.519Z,1011.29
2018-04-27T02:02:56.546Z,1011.30
2018-04-27T02:03:56.559Z,1011.29
2018-04-27T02:04:56.573Z,1011.24
2018-04-27T02:05:56.585Z,1011.28
2018-04-27T02:06:56.599Z,1011.28
2018-04-27T02:07:56.613Z,1011.23
2018-04-27T02:08:56.627Z,1011.27
2018-04-27T02:09:56.643Z,1011.24
2018-04-27T02:10:56.653Z,1011.23
2018-04-27T02:11:56.668Z,1011.20
2018-04-27T02:12:56.680Z,1011.20
2018-04-27T02:13:56.706Z,1011.24
2018-04-27T02:14:56.721Z,1011.23
2018-04-27T02:15:56.733Z,1011.22
2018-04-27T02:16:56.748Z,1011.22
2018-04-27T02:17:56.759Z,1011.20
2018-04-27T02:18:56.774Z,1011.25
2018-04-27T02:19:56.787Z,1011.26
2018-04-27T02:20:56.802Z,1011.24
2018-04-27T02:21:56.814Z,1011.30
2018-04-27T02:22:56.832Z,1011.31
2018-04-27T02:23:56.849Z,1011.33
2018-04-27T02:24:56.854Z,1011.32
2018-04-27T02:25:56.868Z,1011.29
2018-04-27T02:26:56.882Z,1011.28
2018-04-27T02:27:56.911Z,1011.30
2018-04-27T02:28:56.920Z,1011.29
2018-04-27T02:29:56.935Z,1011.31
2018-04-27T02:30:56.948Z,1011.32
2018-04-27T02:31:56.963Z,1011.28
2018-04-27T02:32:56.975Z,1011.29
2018-04-27T02:33:56.990Z,1011.29
2018-04-27T02:34:57.001Z,1011.31
2018-04-27T02:35:57.016Z,1011.36
2018-04-27T02:36:57.028Z,1011.35
2018-04-27T02:37:57.049Z,1011.34
2018-04-27T02:38:57.058Z,1011.34
2018-04-27T02:39:57.071Z,1011.33
2018-04-27T02:40:57.082Z,1011.36
2018-04-27T02:41:57.096Z,1011.35
2018-04-27T02:42:57.110Z,1011.33
2018-04-27T02:43:57.135Z,1011.32
2018-04-27T02:44:57.148Z,1011.34
2018-04-27T02:45:57.162Z,1011.29
2018-04-27T02:46:57.175Z,1011.31
2018-04-27T02:47:57.190Z,1011.30
2018-04-27T02:48:57.204Z,1011.31
2018-04-27T02:49:57.215Z,1011.25
2018-04-27T02:50:57.230Z,1011.28
2018-04-27T02:51:57.243Z,1011.30
2018-04-27T02:52:57.258Z,1011.29
2018-04-27T02:53:57.284Z,1011.27
2018-04-27T02:54:57.284Z,1011.29
2018-04-27T02:55:57.297Z,1011.26
2018-04-27T02:56:57.311Z,1011.31
2018-04-27T02:57:57.325Z,1011.28
2018-04-27T02:58:57.339Z,1011.32
2018-04-27T02:59:57.352Z,1011.30
2018-04-27T03:00:57.371Z,1011.33
2018-04-27T03:01:57.379Z,1011.36
2018-04-27T03:02:57.392Z,1011.30
2018-04-27T03:03:57.407Z,1011.31
2018-04-27T03:04:57.433Z,1011.27
2018-04-27T03:05:57.445Z,1011.29
2018-04-27T03:06:57.472Z,1011.25
2018-04-27T03:07:57.473Z,1011.30
2018-04-27T03:08:57.484Z,1011.26
2018-04-27T03:09:57.500Z,1011.27
2018-04-27T03:10:57.512Z,1011.27
2018-04-27T03:11:57.525Z,1011.28
2018-04-27T03:12:57.538Z,1011.26
2018-04-27T03:13:57.553Z,1011.30
2018-04-27T03:14:57.573Z,1011.28
2018-04-27T03:15:57.580Z,1011.25
2018-04-27T03:16:57.592Z,1011.22
2018-04-27T03:17:57.607Z,1011.24
2018-04-27T03:18:57.620Z,1011.24
2018-04-27T03:19:57.634Z,1011.21
2018-04-27T03:20:57.660Z,1011.27
2018-04-27T03:21:57.665Z,1011.25
2018-04-27T03:22:57.674Z,1011.22
2018-04-27T03:23:57.774Z,1011.22
2018-04-27T03:24:57.701Z,1011.23
2018-04-27T03:25:57.714Z,1011.25
2018-04-27T03:26:57.728Z,1011.24
2018-04-27T03:27:57.742Z,1011.19
2018-04-27T03:28:57.756Z,1011.20
2018-04-27T03:29:57.768Z,1011.17
2018-04-27T03:30:57.783Z,1011.14
2018-04-27T03:31:57.797Z,1011.18
2018-04-27T03:32:57.809Z,1011.15
2018-04-27T03:33:57.823Z,1011.18
2018-04-27T03:34:57.836Z,1011.18
2018-04-27T03:35:57.851Z,1011.20
2018-04-27T03:36:57.862Z,1011.23
2018-04-27T03:37:57.878Z,1011.21
2018-04-27T03:38:57.893Z,1011.20
2018-04-27T03:39:57.904Z,1011.21
2018-04-27T03:40:57.917Z,1011.23
2018-04-27T03:41:57.943Z,1011.25
2018-04-27T03:42:57.944Z,1011.19
2018-04-27T03:43:57.958Z,1011.22
2018-04-27T03:44:57.971Z,1011.19
2018-04-27T03:45:57.996Z,1011.23
2018-04-27T03:46:57.998Z,1011.18
2018-04-27T03:47:58.024Z,1011.18
2018-04-27T03:48:58.037Z,1011.21
2018-04-27T03:49:58.050Z,1011.22
2018-04-27T03:50:58.063Z,1011.20
2018-04-27T03:51:58.145Z,1011.20
2018-04-27T03:52:58.090Z,1011.22
2018-04-27T03:53:58.104Z,1011.22
2018-04-27T03:54:58.119Z,1011.22
2018-04-27T03:55:58.131Z,1011.21
2018-04-27T03:56:58.145Z,1011.23
2018-04-27T03:57:58.171Z,1011.24
2018-04-27T03:58:58.172Z,1011.23
2018-04-27T03:59:58.184Z,1011.23
2018-04-27T04:00:58.199Z,1011.23
2018-04-27T04:01:58.212Z,1011.25
2018-04-27T04:02:58.226Z,1011.25
2018-04-27T04:03:58.238Z,1011.25
2018-04-27T04:04:58.255Z,1011.28
2018-04-27T04:05:58.267Z,1011.29
2018-04-27T04:06:58.283Z,1011.29
2018-04-27T04:07:58.295Z,1011.32
2018-04-27T04:08:58.307Z,1011.32
2018-04-27T04:09:58.320Z,1011.33
2018-04-27T04:10:58.334Z,1011.35
2018-04-27T04:11:58.367Z,1011.37
2018-04-27T04:12:58.360Z,1011.40
2018-04-27T04:13:58.380Z,1011.40
2018-04-27T04:14:58.388Z,1011.42
2018-04-27T04:15:58.401Z,1011.42
2018-04-27T04:16:58.415Z,1011.46
2018-04-27T04:17:58.428Z,1011.44
2018-04-27T04:18:58.443Z,1011.44
2018-04-27T04:19:58.467Z,1011.48
2018-04-27T04:20:58.469Z,1011.50
2018-04-27T04:21:58.481Z,1011.50
2018-04-27T04:22:58.496Z,1011.49
2018-04-27T04:23:58.509Z,1011.46
2018-04-27T04:24:58.522Z,1011.47
2018-04-27T04:25:58.539Z,1011.49
2018-04-27T04:26:58.556Z,1011.47
2018-04-27T04:27:58.562Z,1011.51
2018-04-27T04:28:58.576Z,1011.48
2018-04-27T04:29:58.590Z,1011.51
2018-04-27T04:30:58.603Z,1011.52
2018-04-27T04:31:58.617Z,1011.48
2018-04-27T04:32:58.642Z,1011.47
2018-04-27T04:33:58.657Z,1011.52
2018-04-27T04:34:58.669Z,1011.52
2018-04-27T04:35:58.683Z,1011.53
2018-04-27T04:36:58.696Z,1011.53
2018-04-27T04:37:58.712Z,1011.58
2018-04-27T04:38:58.740Z,1011.57
2018-04-27T04:39:58.741Z,1011.60
2018-04-27T04:40:58.749Z,1011.57
2018-04-27T04:41:58.767Z,1011.62
2018-04-27T04:42:58.776Z,1011.54
2018-04-27T04:43:58.791Z,1011.61
2018-04-27T04:44:58.804Z,1011.57
2018-04-27T04:45:58.829Z,1011.60
2018-04-27T04:46:58.844Z,1011.59
2018-04-27T04:47:58.857Z,1011.60
2018-04-27T04:48:58.872Z,1011.61
2018-04-27T04:49:58.883Z,1011.61
2018-04-27T04:50:58.898Z,1011.66
2018-04-27T04:51:58.924Z,1011.65
2018-04-27T04:52:58.925Z,1011.62
2018-04-27T04:53:58.939Z,1011.62
2018-04-27T04:54:58.952Z,1011.67
2018-04-27T04:55:58.967Z,1011.67
2018-04-27T04:56:58.991Z,1011.66
2018-04-27T04:57:59.006Z,1011.71
2018-04-27T04:58:59.019Z,1011.70
2018-04-27T04:59:59.032Z,1011.70
2018-04-27T05:00:59.045Z,1011.74
2018-04-27T05:01:59.059Z,1011.75
2018-04-27T05:02:59.084Z,1011.75
2018-04-27T05:03:59.098Z,1011.71
2018-04-27T05:04:59.113Z,1011.75
2018-04-27T05:05:59.125Z,1011.77
2018-04-27T05:06:59.141Z,1011.78
2018-04-27T05:07:59.155Z,1011.78
2018-04-27T05:08:59.165Z,1011.80
2018-04-27T05:09:59.180Z,1011.76
2018-04-27T05:10:59.205Z,1011.75
2018-04-27T05:11:59.219Z,1011.79
2018-04-27T05:12:59.232Z,1011.82
2018-04-27T05:13:59.246Z,1011.85
2018-04-27T05:14:59.259Z,1011.85
2018-04-27T05:15:59.276Z,1011.77
2018-04-27T05:16:59.298Z,1011.82
2018-04-27T05:17:59.389Z,1011.80
2018-04-27T05:18:59.382Z,1011.83
2018-04-27T05:19:59.340Z,1011.85
2018-04-27T05:20:59.365Z,1011.86
2018-04-27T05:21:59.367Z,1011.88
2018-04-27T05:22:59.393Z,1011.87
2018-04-27T05:23:59.406Z,1011.87
2018-04-27T05:24:59.418Z,1011.86
2018-04-27T05:25:59.432Z,1011.87
2018-04-27T05:26:59.445Z,1011.89
2018-04-27T05:27:59.476Z,1011.85
2018-04-27T05:28:59.488Z,1011.89
2018-04-27T05:29:59.511Z,1011.92
2018-04-27T05:30:59.513Z,1011.92
2018-04-27T05:31:59.526Z,1011.91
2018-04-27T05:32:59.551Z,1011.91
2018-04-27T05:33:59.565Z,1011.91
2018-04-27T05:34:59.579Z,1011.89
2018-04-27T05:35:59.593Z,1011.91
2018-04-27T05:36:59.605Z,1011.91
2018-04-27T05:37:59.631Z,1011.94
2018-04-27T05:38:59.645Z,1011.88
2018-04-27T05:39:59.658Z,1011.89
2018-04-27T05:40:59.672Z,1011.90
2018-04-27T05:41:59.686Z,1011.87
2018-04-27T05:42:59.711Z,1011.89
2018-04-27T05:43:59.725Z,1011.88
2018-04-27T05:44:59.737Z,1011.92
2018-04-27T05:45:59.752Z,1011.95
2018-04-27T05:46:59.765Z,1011.88
2018-04-27T05:47:59.790Z,1011.89
2018-04-27T05:48:59.842Z,1011.91
2018-04-27T05:49:59.819Z,1011.90
2018-04-27T05:50:59.832Z,1011.89
2018-04-27T05:51:59.864Z,1011.85
2018-04-27T05:52:59.870Z,1011.85
2018-04-27T05:53:59.884Z,1011.89
2018-04-27T05:54:59.897Z,1011.92
2018-04-27T05:55:59.936Z,1011.92
2018-04-27T05:56:59.942Z,1011.88
2018-04-27T05:57:59.950Z,1011.88
2018-04-27T05:58:59.966Z,1011.86
2018-04-27T05:59:59.991Z,1011.85
2018-04-27T06:01:00.003Z,1011.84
2018-04-27T06:02:00.019Z,1011.81
2018-04-27T06:03:00.031Z,1011.79
2018-04-27T06:04:00.070Z,1011.82
2018-04-27T06:05:00.071Z,1011.87
2018-04-27T06:06:00.083Z,1011.77
2018-04-27T06:07:00.100Z,1011.84
2018-04-27T06:08:00.124Z,1011.80
2018-04-27T06:09:00.136Z,1011.78
2018-04-27T06:10:00.151Z,1011.82
2018-04-27T06:11:00.177Z,1011.85
2018-04-27T06:12:00.195Z,1011.85
2018-04-27T06:13:00.204Z,1011.83
2018-04-27T06:14:00.230Z,1011.86
2018-04-27T06:15:00.242Z,1011.83
2018-04-27T06:16:00.256Z,1011.83
2018-04-27T06:17:00.270Z,1011.82
2018-04-27T06:18:00.296Z,1011.82
2018-04-27T06:19:00.310Z,1011.82
2018-04-27T06:20:00.322Z,1011.83
2018-04-27T06:21:00.353Z,1011.85
2018-04-27T06:22:00.363Z,1011.85
2018-04-27T06:23:00.380Z,1011.83
2018-04-27T06:24:00.415Z,1011.84
2018-04-27T06:25:00.417Z,1011.84
2018-04-27T06:26:00.442Z,1011.82
2018-04-27T06:27:00.454Z,1011.83
2018-04-27T06:28:00.467Z,1011.82
2018-04-27T06:29:00.494Z,1011.83
2018-04-27T06:30:00.507Z,1011.86
2018-04-27T06:31:00.534Z,1011.89
2018-04-27T06:32:00.548Z,1011.86
2018-04-27T06:33:00.560Z,1011.85
2018-04-27T06:34:00.586Z,1011.85
2018-04-27T06:35:00.600Z,1011.84
2018-04-27T06:36:00.627Z,1011.85
2018-04-27T06:37:00.638Z,1011.82
2018-04-27T06:38:00.665Z,1011.82
2018-04-27T06:39:00.679Z,1011.82
2018-04-27T06:40:00.705Z,1011.75
2018-04-27T06:41:00.717Z,1011.77
2018-04-27T06:42:00.744Z,1011.74
2018-04-27T06:43:00.757Z,1011.72
2018-04-27T06:44:00.785Z,1011.72
2018-04-27T06:45:00.796Z,1011.69
2018-04-27T06:46:00.838Z,1011.73
2018-04-27T06:47:00.837Z,1011.70
2018-04-27T06:48:00.862Z,1011.74
2018-04-27T06:49:00.888Z,1011.70
2018-04-27T06:50:00.916Z,1011.65
2018-04-27T06:51:00.927Z,1011.69
2018-04-27T06:52:00.941Z,1011.66
2018-04-27T06:53:00.969Z,1011.62
2018-04-27T06:54:00.994Z,1011.60
2018-04-27T06:55:01.007Z,1011.64
2018-04-27T06:56:01.032Z,1011.67
2018-04-27T06:57:01.059Z,1011.64
2018-04-27T06:58:01.073Z,1011.64
2018-04-27T06:59:01.098Z,1011.68
2018-04-27T07:00:01.125Z,1011.67
2018-04-27T07:01:01.142Z,1011.67
2018-04-27T07:02:01.163Z,1011.68
2018-04-27T07:03:01.189Z,1011.69
2018-04-27T07:04:01.203Z,1011.66
2018-04-27T07:05:01.309Z,1011.70
2018-04-27T07:06:01.261Z,1011.62
2018-04-27T07:07:01.282Z,1011.64
2018-04-27T07:08:01.294Z,1011.66
2018-04-27T07:09:01.327Z,1011.64
2018-04-27T07:10:01.347Z,1011.65
2018-04-27T07:11:01.372Z,1011.63
2018-04-27T07:12:01.387Z,1011.65
2018-04-27T07:13:01.413Z,1011.60
2018-04-27T07:14:01.439Z,1011.61
2018-04-27T07:15:01.466Z,1011.63
2018-04-27T07:16:01.478Z,1011.63
2018-04-27T07:17:01.531Z,1011.64
2018-04-27T07:18:01.529Z,1011.64
2018-04-27T07:19:01.558Z,1011.68
2018-04-27T07:20:01.582Z,1011.65
2018-04-27T07:21:01.607Z,1011.66
2018-04-27T07:22:01.627Z,1011.65
2018-04-27T07:23:01.648Z,1011.67
2018-04-27T07:24:01.673Z,1011.64
2018-04-27T07:25:01.701Z,1011.62
2018-04-27T07:26:01.737Z,1011.60
2018-04-27T07:27:01.753Z,1011.61
2018-04-27T07:28:01.778Z,1011.62
2018-04-27T07:29:01.803Z,1011.59
2018-04-27T07:30:01.823Z,1011.58
2018-04-27T07:31:01.843Z,1011.62
2018-04-27T07:32:01.869Z,1011.52
2018-04-27T07:33:01.894Z,1011.54
2018-04-27T07:34:01.921Z,1011.57
2018-04-27T07:35:01.946Z,1011.54
2018-04-27T07:36:02.007Z,1011.54
2018-04-27T07:37:01.998Z,1011.54
2018-04-27T07:38:02.026Z,1011.54
2018-04-27T07:39:02.039Z,1011.54
2018-04-27T07:40:02.065Z,1011.51
2018-04-27T07:41:02.092Z,1011.50
2018-04-27T07:42:02.117Z,1011.53
2018-04-27T07:43:02.142Z,1011.48
2018-04-27T07:44:02.172Z,1011.51
2018-04-27T07:45:02.195Z,1011.44
2018-04-27T07:46:02.221Z,1011.46
2018-04-27T07:47:02.246Z,1011.53
2018-04-27T07:48:02.272Z,1011.47
2018-04-27T07:49:02.299Z,1011.49
2018-04-27T07:50:02.324Z,1011.44
2018-04-27T07:51:02.350Z,1011.42
2018-04-27T07:52:02.377Z,1011.41
2018-04-27T07:53:02.402Z,1011.44
2018-04-27T07:54:02.428Z,1011.46
2018-04-27T07:55:02.458Z,1011.46
2018-04-27T07:56:02.469Z,1011.43
2018-04-27T07:57:02.494Z,1011.46
2018-04-27T07:58:02.520Z,1011.47
2018-04-27T07:59:02.544Z,1011.44
2018-04-27T08:00:02.579Z,1011.45
2018-04-27T08:01:02.597Z,1011.44
2018-04-27T08:02:02.683Z,1011.48
2018-04-27T08:03:02.648Z,1011.47
2018-04-27T08:04:02.680Z,1011.46
2018-04-27T08:05:02.701Z,1011.51
2018-04-27T08:06:02.727Z,1011.43
2018-04-27T08:07:02.752Z,1011.40
2018-04-27T08:08:02.779Z,1011.41
2018-04-27T08:09:02.807Z,1011.37
2018-04-27T08:10:02.831Z,1011.33
2018-04-27T08:11:02.857Z,1011.31
2018-04-27T08:12:02.883Z,1011.34
2018-04-27T08:13:02.910Z,1011.37
2018-04-27T08:14:02.935Z,1011.38
2018-04-27T08:15:02.966Z,1011.35
2018-04-27T08:16:02.986Z,1011.35
2018-04-27T08:17:03.013Z,1011.37
2018-04-27T08:18:03.039Z,1011.38
2018-04-27T08:19:03.065Z,1011.43
2018-04-27T08:20:03.090Z,1011.36
2018-04-27T08:21:03.105Z,1011.41
2018-04-27T08:22:03.131Z,1011.38
2018-04-27T08:23:03.156Z,1011.43
2018-04-27T08:24:03.181Z,1011.42
2018-04-27T08:25:03.209Z,1011.46
2018-04-27T08:26:03.234Z,1011.44
2018-04-27T08:27:03.259Z,1011.48
2018-04-27T08:28:03.273Z,1011.43
2018-04-27T08:29:03.298Z,1011.43
2018-04-27T08:30:03.325Z,1011.43
2018-04-27T08:31:03.339Z,1011.40
2018-04-27T08:32:03.365Z,1011.39
2018-04-27T08:33:03.391Z,1011.42
2018-04-27T08:34:03.417Z,1011.37
2018-04-27T08:35:03.429Z,1011.45
2018-04-27T08:36:03.469Z,1011.37
2018-04-27T08:37:03.481Z,1011.38
2018-04-27T08:38:03.506Z,1011.40
2018-04-27T08:39:03.521Z,1011.36
2018-04-27T08:40:03.548Z,1011.34
2018-04-27T08:41:03.573Z,1011.31
2018-04-27T08:42:03.588Z,1011.33
2018-04-27T08:43:03.612Z,1011.32
2018-04-27T08:44:03.639Z,1011.33
2018-04-27T08:45:03.653Z,1011.32
2018-04-27T08:46:03.679Z,1011.32
2018-04-27T08:47:03.704Z,1011.35
2018-04-27T08:48:03.717Z,1011.29
2018-04-27T08:49:03.744Z,1011.29
2018-04-27T08:50:03.783Z,1011.29
2018-04-27T08:51:03.784Z,1011.29
2018-04-27T08:52:03.809Z,1011.26
2018-04-27T08:53:03.837Z,1011.28
2018-04-27T08:54:03.849Z,1011.31
2018-04-27T08:55:03.878Z,1011.28
2018-04-27T08:56:03.901Z,1011.31
2018-04-27T08:57:03.927Z,1011.27
2018-04-27T08:58:03.940Z,1011.26
2018-04-27T08:59:03.967Z,1011.27
2018-04-27T09:00:03.983Z,1011.22
2018-04-27T09:01:04.010Z,1011.19
2018-04-27T09:02:04.037Z,1011.22
2018-04-27T09:03:04.048Z,1011.24
2018-04-27T09:04:04.073Z,1011.19
2018-04-27T09:05:04.099Z,1011.20
2018-04-27T09:06:04.125Z,1011.22
2018-04-27T09:07:04.140Z,1011.21
2018-04-27T09:08:04.165Z,1011.20
2018-04-27T09:09:04.190Z,1011.17
2018-04-27T09:10:04.205Z,1011.17
2018-04-27T09:11:04.231Z,1011.13
2018-04-27T09:12:04.257Z,1011.17
2018-04-27T09:13:04.270Z,1011.16
2018-04-27T09:14:04.295Z,1011.16
2018-04-27T09:15:04.323Z,1011.06
2018-04-27T09:16:04.335Z,1011.07
2018-04-27T09:17:04.362Z,1011.04
2018-04-27T09:18:04.388Z,1011.03
2018-04-27T09:19:04.401Z,1011.05
2018-04-27T09:20:04.426Z,1011.01
2018-04-27T09:21:04.452Z,1011.02
2018-04-27T09:22:04.478Z,1011.02
2018-04-27T09:23:04.493Z,1011.00
2018-04-27T09:24:04.520Z,1011.02
2018-04-27T09:25:04.533Z,1011.01
2018-04-27T09:26:04.559Z,1011.06
2018-04-27T09:27:04.583Z,1011.03
2018-04-27T09:28:04.615Z,1010.95
2018-04-27T09:29:04.623Z,1010.95
2018-04-27T09:30:04.650Z,1010.93
2018-04-27T09:31:04.676Z,1010.95
2018-04-27T09:32:04.688Z,1010.95
2018-04-27T09:33:04.715Z,1010.94
2018-04-27T09:34:04.741Z,1010.96
2018-04-27T09:35:04.759Z,1010.88
2018-04-27T09:36:04.780Z,1010.95
2018-04-27T09:37:04.806Z,1010.95
2018-04-27T09:38:04.820Z,1010.94
2018-04-27T09:39:04.845Z,1010.96
2018-04-27T09:40:04.871Z,1010.90
2018-04-27T09:41:04.929Z,1010.95
2018-04-27T09:42:04.912Z,1010.96
2018-04-27T09:43:04.937Z,1010.99
2018-04-27T09:44:04.964Z,1010.99
2018-04-27T09:45:04.978Z,1010.98
2018-04-27T09:46:05.003Z,1011.00
2018-04-27T09:47:05.028Z,1010.91
2018-04-27T09:48:05.042Z,1010.93
2018-04-27T09:49:05.068Z,1010.91
2018-04-27T09:50:05.096Z,1010.94
2018-04-27T09:51:05.109Z,1010.94
2018-04-27T09:52:05.133Z,1010.83
2018-04-27T09:53:05.159Z,1010.81
2018-04-27T09:54:05.185Z,1010.80
2018-04-27T09:55:05.198Z,1010.83
2018-04-27T09:56:05.226Z,1010.84
2018-04-27T09:57:05.252Z,1010.82
2018-04-27T09:58:05.264Z,1010.81
2018-04-27T09:59:05.289Z,1010.88
2018-04-27T10:00:05.316Z,1010.86
2018-04-27T10:01:05.340Z,1010.81
2018-04-27T10:02:05.354Z,1010.79
2018-04-27T10:03:05.383Z,1010.73
2018-04-27T10:04:05.407Z,1010.76
2018-04-27T10:05:05.421Z,1010.74
2018-04-27T10:06:05.447Z,1010.75
2018-04-27T10:07:05.471Z,1010.79
2018-04-27T10:08:05.496Z,1010.77
2018-04-27T10:09:05.522Z,1010.71
2018-04-27T10:10:05.548Z,1010.69
2018-04-27T10:11:05.563Z,1010.65
2018-04-27T10:12:05.589Z,1010.62
2018-04-27T10:13:05.614Z,1010.62
2018-04-27T10:14:05.641Z,1010.62
2018-04-27T10:15:05.748Z,1010.61
2018-04-27T10:16:05.692Z,1010.58
2018-04-27T10:17:05.735Z,1010.53
2018-04-27T10:18:05.757Z,1010.53
2018-04-27T10:19:05.783Z,1010.43
2018-04-27T10:20:05.810Z,1010.47
2018-04-27T10:21:05.834Z,1010.52
2018-04-27T10:22:05.861Z,1010.46
2018-04-27T10:23:05.890Z,1010.51
2018-04-27T10:24:05.914Z,1010.48
2018-04-27T10:25:05.953Z,1010.45
2018-04-27T10:26:05.980Z,1010.48
2018-04-27T10:27:06.005Z,1010.51
2018-04-27T10:28:06.043Z,1010.47
2018-04-27T10:29:06.069Z,1010.40
2018-04-27T10:30:06.108Z,1010.41
2018-04-27T10:31:06.213Z,1010.44
2018-04-27T10:32:06.160Z,1010.55
2018-04-27T10:33:06.198Z,1010.60
2018-04-27T10:34:06.222Z,1010.62
2018-04-27T10:35:06.254Z,1010.63
2018-04-27T10:36:06.288Z,1010.54
2018-04-27T10:37:06.314Z,1010.52
2018-04-27T10:38:06.352Z,1010.46
2018-04-27T10:39:06.377Z,1010.34
2018-04-27T10:40:06.416Z,1010.38
2018-04-27T10:41:06.444Z,1010.41
2018-04-27T10:42:06.479Z,1010.38
2018-04-27T10:43:06.520Z,1010.44
2018-04-27T10:44:06.544Z,1010.37
2018-04-27T10:45:06.582Z,1010.30
2018-04-27T10:46:06.608Z,1010.26
2018-04-27T10:47:06.648Z,1010.26
2018-04-27T10:48:06.673Z,1010.25
2018-04-27T10:49:06.711Z,1010.17
2018-04-27T10:50:06.751Z,1010.21
2018-04-27T10:51:06.789Z,1010.17
2018-04-27T10:52:06.813Z,1010.14
2018-04-27T10:53:06.854Z,1010.15
2018-04-27T10:54:06.911Z,1010.14
2018-04-27T10:55:06.933Z,1010.19
2018-04-27T10:56:07.000Z,1010.17
2018-04-27T10:57:06.999Z,1010.17
2018-04-27T10:58:07.034Z,1010.23
2018-04-27T10:59:07.071Z,1010.17
2018-04-27T11:00:07.111Z,1010.16
2018-04-27T11:01:07.148Z,1010.17
2018-04-27T11:02:07.174Z,1010.10
2018-04-27T11:03:07.214Z,1009.98
2018-04-27T11:04:07.252Z,1010.08
2018-04-27T11:05:07.294Z,1010.03
2018-04-27T11:06:07.328Z,1010.01
2018-04-27T11:07:07.369Z,1009.93
2018-04-27T11:08:07.406Z,1009.93
2018-04-27T11:09:07.433Z,1009.89
2018-04-27T11:10:07.473Z,1009.89
2018-04-27T11:11:07.510Z,1009.75
2018-04-27T11:12:07.551Z,1009.74
2018-04-27T11:13:07.587Z,1009.73
2018-04-27T11:14:07.626Z,1009.69
2018-04-27T11:15:07.665Z,1009.64
2018-04-27T11:16:07.703Z,1009.74
2018-04-27T11:17:07.740Z,1009.67
2018-04-27T11:18:07.766Z,1009.67
2018-04-27T11:19:07.806Z,1009.69
2018-04-27T11:20:07.847Z,1009.78
2018-04-27T11:21:07.883Z,1009.79
2018-04-27T11:22:07.913Z,1009.95
2018-04-27T11:23:07.947Z,1009.93
2018-04-27T11:24:07.973Z,1009.85
2018-04-27T11:25:08.013Z,1009.89
2018-04-27T11:26:08.086Z,1009.80
2018-04-27T11:27:08.076Z,1009.86
2018-04-27T11:28:08.116Z,1009.82
2018-04-27T11:29:08.154Z,1009.68
2018-04-27T11:30:08.180Z,1009.72
2018-04-27T11:31:08.219Z,1009.74
2018-04-27T11:32:08.256Z,1009.68
2018-04-27T11:33:08.296Z,1009.66
2018-04-27T11:34:08.322Z,1009.70
2018-04-27T11:35:08.379Z,1009.65
2018-04-27T11:36:08.402Z,1009.61
2018-04-27T11:37:08.436Z,1009.57
2018-04-27T11:38:08.475Z,1009.55
2018-04-27T11:39:08.512Z,1009.54
2018-04-27T11:40:08.541Z,1009.49
2018-04-27T11:41:08.578Z,1009.49
2018-04-27T11:42:08.620Z,1009.45
2018-04-27T11:43:08.656Z,1009.35
2018-04-27T11:44:08.706Z,1009.44
2018-04-27T11:45:08.734Z,1009.40
2018-04-27T11:46:08.770Z,1009.45
2018-04-27T11:47:08.809Z,1009.45
2018-04-27T11:48:08.836Z,1009.50
2018-04-27T11:49:08.874Z,1009.55
2018-04-27T11:50:08.912Z,1009.55
2018-04-27T11:51:08.961Z,1009.54
2018-04-27T11:52:08.989Z,1009.49
2018-04-27T11:53:09.111Z,1009.43
2018-04-27T11:54:09.052Z,1009.44
2018-04-27T11:55:09.091Z,1009.35
2018-04-27T11:56:09.131Z,1009.45
2018-04-27T11:57:09.155Z,1009.36
2018-04-27T11:58:09.194Z,1009.33
2018-04-27T11:59:09.232Z,1009.39
2018-04-27T12:00:09.257Z,1009.47
2018-04-27T12:01:09.297Z,1009.48
2018-04-27T12:02:09.336Z,1009.44
2018-04-27T12:03:09.361Z,1009.47
2018-04-27T12:04:09.406Z,1009.47
2018-04-27T12:05:09.451Z,1009.51
2018-04-27T12:06:09.464Z,1009.52